createdAt,value
2022-10-30T00:01:51.434Z,12.21
2022-10-30T00:04:23.920Z,12.27
2022-10-30T00:06:55.963Z,12.27
2022-10-30T00:09:27.983Z,12.29
2022-10-30T00:11:59.926Z,12.29
2022-10-30T00:14:31.959Z,12.30
2022-10-30T00:17:03.924Z,12.32
2022-10-30T00:19:35.749Z,12.35
2022-10-30T00:24:38.537Z,12.39
2022-10-30T00:27:10.846Z,12.38
2022-10-30T00:29:43.077Z,12.44
2022-10-30T00:32:15.114Z,12.35
2022-10-30T00:34:47.691Z,12.38
2022-10-30T00:37:19.555Z,12.45
2022-10-30T00:39:52.271Z,12.48
2022-10-30T00:42:25.681Z,12.49
2022-10-30T00:44:57.573Z,12.51
2022-10-30T00:47:35.297Z,12.54
2022-10-30T00:50:22.285Z,12.53
2022-10-30T00:53:00.356Z,12.54
2022-10-30T00:55:35.638Z,12.52
2022-10-30T00:58:10.376Z,12.55
2022-10-30T01:00:45.388Z,12.60
2022-10-30T01:03:17.824Z,12.59
2022-10-30T01:05:52.473Z,12.59
2022-10-30T01:08:24.907Z,12.60
2022-10-30T01:10:59.854Z,12.61
2022-10-30T01:13:33.911Z,12.70
2022-10-30T01:16:23.380Z,12.67
2022-10-30T01:19:16.624Z,12.77
2022-10-30T01:22:06.860Z,12.70
2022-10-30T01:25:01.011Z,12.67
2022-10-30T01:27:42.446Z,12.61
2022-10-30T01:30:23.329Z,12.63
2022-10-30T01:33:17.511Z,12.54
2022-10-30T01:35:52.915Z,12.48
2022-10-30T01:38:39.630Z,12.45
2022-10-30T01:41:12.431Z,12.38
2022-10-30T01:43:48.319Z,12.42
2022-10-30T01:46:44.424Z,12.39
2022-10-30T01:49:37.514Z,12.38
2022-10-30T01:52:21.564Z,12.38
2022-10-30T01:55:11.278Z,12.33
2022-10-30T01:57:58.317Z,12.32
2022-10-30T02:00:30.358Z,12.36
2022-10-30T02:03:03.167Z,12.31
2022-10-30T02:05:46.988Z,12.18
2022-10-30T02:08:19.496Z,12.14
2022-10-30T02:10:54.702Z,12.06
2022-10-30T02:13:28.359Z,12.02
2022-10-30T02:16:01.539Z,12.05
2022-10-30T02:18:33.658Z,12.08
2022-10-30T02:21:06.730Z,12.04
2022-10-30T02:23:38.864Z,11.98
2022-10-30T02:26:10.802Z,12.00
2022-10-30T02:28:42.800Z,12.10
2022-10-30T02:31:15.108Z,12.14
2022-10-30T02:33:50.196Z,12.14
2022-10-30T02:36:22.118Z,12.26
2022-10-30T02:38:55.281Z,12.38
2022-10-30T02:41:27.361Z,12.37
2022-10-30T02:43:59.468Z,12.39
2022-10-30T02:46:31.464Z,12.44
2022-10-30T02:49:03.622Z,12.46
2022-10-30T02:51:35.887Z,12.48
2022-10-30T02:54:07.935Z,12.49
2022-10-30T02:56:41.996Z,12.45
2022-10-30T02:59:14.145Z,12.44
2022-10-30T03:01:46.291Z,12.48
2022-10-30T03:04:18.881Z,12.51
2022-10-30T03:06:52.503Z,12.48
2022-10-30T03:09:24.775Z,12.47
2022-10-30T03:11:56.668Z,12.45
2022-10-30T03:14:29.036Z,12.44
2022-10-30T03:17:01.001Z,12.37
2022-10-30T03:19:33.045Z,12.36
2022-10-30T03:22:05.119Z,12.30
2022-10-30T03:24:38.302Z,12.29
2022-10-30T03:27:10.188Z,12.24
2022-10-30T03:29:42.389Z,12.21
2022-10-30T03:32:15.984Z,12.21
2022-10-30T03:34:49.781Z,12.26
2022-10-30T03:37:23.189Z,12.27
2022-10-30T03:39:55.131Z,12.22
2022-10-30T03:42:27.389Z,12.13
2022-10-30T03:44:59.506Z,12.13
2022-10-30T03:47:33.416Z,11.98
2022-10-30T03:50:05.507Z,11.88
2022-10-30T03:52:38.278Z,11.77
2022-10-30T03:55:10.635Z,11.80
2022-10-30T03:57:43.912Z,11.72
2022-10-30T04:00:18.512Z,11.68
2022-10-30T04:03:01.506Z,11.63
2022-10-30T04:05:34.716Z,11.49
2022-10-30T04:08:10.313Z,11.43
2022-10-30T04:10:46.221Z,11.42
2022-10-30T04:13:20.449Z,11.42
2022-10-30T04:15:58.027Z,11.38
2022-10-30T04:18:28.130Z,11.41
2022-10-30T04:21:02.102Z,11.49
2022-10-30T04:23:36.218Z,11.48
2022-10-30T04:26:08.401Z,11.38
2022-10-30T04:28:42.333Z,11.34
2022-10-30T04:31:14.237Z,11.34
2022-10-30T04:33:47.246Z,11.34
2022-10-30T04:36:19.541Z,11.34
2022-10-30T04:38:51.486Z,11.40
2022-10-30T04:41:24.033Z,11.46
2022-10-30T04:43:58.000Z,11.50
2022-10-30T04:46:29.927Z,11.51
2022-10-30T04:49:03.685Z,11.51
2022-10-30T04:51:35.669Z,11.52
2022-10-30T04:54:08.832Z,11.53
2022-10-30T04:56:41.500Z,11.46
2022-10-30T04:59:13.519Z,11.38
2022-10-30T05:01:45.736Z,11.39
2022-10-30T05:04:17.746Z,11.36
2022-10-30T05:06:52.256Z,11.40
2022-10-30T05:09:24.249Z,11.36
2022-10-30T05:11:59.954Z,11.32
2022-10-30T05:14:32.444Z,11.27
2022-10-30T05:17:04.447Z,11.26
2022-10-30T05:19:38.099Z,11.26
2022-10-30T05:22:10.591Z,11.26
2022-10-30T05:24:42.549Z,11.24
2022-10-30T05:27:14.654Z,11.25
2022-10-30T05:29:46.616Z,11.27
2022-10-30T05:32:18.698Z,11.35
2022-10-30T05:34:52.310Z,11.54
2022-10-30T05:37:26.151Z,11.99
2022-10-30T05:39:58.265Z,12.27
2022-10-30T05:42:32.780Z,12.16
2022-10-30T05:45:06.751Z,11.91
2022-10-30T05:47:39.799Z,11.63
2022-10-30T05:50:12.630Z,11.43
2022-10-30T05:52:46.717Z,11.44
2022-10-30T05:55:20.086Z,11.17
2022-10-30T05:58:02.347Z,11.02
2022-10-30T06:00:37.437Z,10.66
2022-10-30T06:03:14.305Z,10.55
2022-10-30T06:05:48.356Z,10.37
2022-10-30T06:08:21.132Z,10.33
2022-10-30T06:10:56.103Z,10.47
2022-10-30T06:13:29.800Z,10.35
2022-10-30T06:16:06.550Z,10.30
2022-10-30T06:18:40.158Z,10.27
2022-10-30T06:21:13.914Z,10.31
2022-10-30T06:23:50.515Z,10.26
2022-10-30T06:26:24.237Z,10.30
2022-10-30T06:28:57.781Z,10.26
2022-10-30T06:31:29.748Z,10.21
2022-10-30T06:34:03.464Z,10.25
2022-10-30T06:36:37.043Z,10.34
2022-10-30T06:39:09.579Z,10.36
2022-10-30T06:41:43.521Z,10.40
2022-10-30T06:44:35.308Z,10.37
2022-10-30T06:47:07.662Z,10.33
2022-10-30T06:49:39.631Z,10.31
2022-10-30T06:52:11.653Z,10.29
2022-10-30T06:54:44.100Z,10.35
2022-10-30T06:57:17.727Z,10.70
2022-10-30T06:59:51.712Z,11.31
2022-10-30T07:02:37.418Z,11.49
2022-10-30T07:05:11.167Z,11.57
2022-10-30T07:07:44.034Z,11.69
2022-10-30T07:10:16.097Z,11.75
2022-10-30T07:12:54.564Z,11.85
2022-10-30T07:15:28.649Z,12.25
2022-10-30T07:18:04.543Z,12.60
2022-10-30T07:20:38.657Z,12.30
2022-10-30T07:23:10.751Z,11.77
2022-10-30T07:25:43.017Z,11.51
2022-10-30T07:28:20.081Z,11.13
2022-10-30T07:30:56.621Z,10.88
2022-10-30T07:33:46.684Z,10.68
2022-10-30T07:36:35.034Z,10.48
2022-10-30T07:39:08.966Z,10.29
2022-10-30T07:41:47.318Z,10.27
2022-10-30T07:44:33.941Z,10.31
2022-10-30T07:47:10.558Z,10.38
2022-10-30T07:50:01.997Z,10.49
2022-10-30T07:52:35.610Z,10.52
2022-10-30T07:55:08.398Z,10.53
2022-10-30T07:57:43.525Z,10.53
2022-10-30T08:00:23.092Z,10.51
2022-10-30T08:03:06.564Z,10.55
2022-10-30T08:05:40.431Z,10.58
2022-10-30T08:08:14.196Z,10.64
2022-10-30T08:10:46.654Z,10.79
2022-10-30T08:13:18.815Z,10.74
2022-10-30T08:15:51.232Z,10.82
2022-10-30T08:18:23.309Z,10.84
2022-10-30T08:20:55.297Z,10.84
2022-10-30T08:23:28.315Z,10.96
2022-10-30T08:26:00.786Z,11.22
2022-10-30T08:28:34.253Z,11.34
2022-10-30T08:31:06.761Z,11.50
2022-10-30T08:33:55.438Z,11.45
2022-10-30T08:36:43.871Z,11.57
2022-10-30T08:39:15.045Z,11.61
2022-10-30T08:41:48.988Z,11.75
2022-10-30T08:44:22.796Z,11.66
2022-10-30T08:46:56.636Z,11.66
2022-10-30T08:49:28.830Z,11.67
2022-10-30T08:52:02.336Z,11.69
2022-10-30T08:54:34.305Z,11.76
2022-10-30T08:57:06.352Z,11.64
2022-10-30T08:59:38.989Z,11.62
2022-10-30T09:02:13.088Z,11.61
2022-10-30T09:05:03.100Z,11.61
2022-10-30T09:07:45.707Z,11.64
2022-10-30T09:10:25.218Z,11.54
2022-10-30T09:13:03.359Z,11.46
2022-10-30T09:15:36.268Z,11.37
2022-10-30T09:18:10.479Z,11.35
2022-10-30T09:20:42.636Z,11.29
2022-10-30T09:23:15.763Z,11.23
2022-10-30T09:25:49.504Z,11.14
2022-10-30T09:28:23.093Z,11.31
2022-10-30T09:31:12.875Z,11.23
2022-10-30T09:33:44.890Z,10.89
2022-10-30T09:36:22.087Z,10.78
2022-10-30T09:38:52.326Z,10.74
2022-10-30T09:41:46.989Z,10.90
2022-10-30T09:44:29.057Z,10.65
2022-10-30T09:47:30.298Z,10.67
2022-10-30T09:50:14.770Z,10.60
2022-10-30T09:52:59.031Z,10.64
2022-10-30T09:55:37.442Z,10.76
2022-10-30T09:58:12.520Z,10.85
2022-10-30T10:00:47.987Z,10.86
2022-10-30T10:03:30.167Z,10.74
2022-10-30T10:06:06.705Z,10.65
2022-10-30T10:08:58.015Z,10.78
2022-10-30T10:11:53.417Z,10.48
2022-10-30T10:14:31.645Z,10.40
2022-10-30T10:17:07.163Z,10.33
2022-10-30T10:20:00.266Z,10.29
2022-10-30T10:22:36.129Z,10.21
2022-10-30T10:25:11.108Z,10.25
2022-10-30T10:27:57.607Z,10.13
2022-10-30T10:30:32.469Z,10.11
2022-10-30T10:33:10.595Z,10.07
2022-10-30T10:35:48.511Z,10.08
2022-10-30T10:38:35.393Z,10.15
2022-10-30T10:41:26.583Z,10.37
2022-10-30T10:44:25.354Z,10.51
2022-10-30T10:47:07.492Z,10.58
2022-10-30T10:50:17.355Z,10.54
2022-10-30T10:52:52.485Z,10.51
2022-10-30T10:55:30.031Z,10.53
2022-10-30T10:58:07.754Z,10.44
2022-10-30T11:00:41.691Z,10.42
2022-10-30T11:03:30.957Z,10.42
2022-10-30T11:06:12.135Z,10.35
2022-10-30T11:08:45.012Z,10.33
2022-10-30T11:11:17.083Z,10.42
2022-10-30T11:13:50.749Z,10.23
2022-10-30T11:16:40.311Z,9.83
2022-10-30T11:19:12.701Z,9.52
2022-10-30T11:21:53.328Z,9.34
2022-10-30T11:24:38.004Z,9.10
2022-10-30T11:27:20.515Z,9.05
2022-10-30T11:30:03.255Z,9.21
2022-10-30T11:32:36.520Z,9.25
2022-10-30T11:35:14.042Z,9.02
2022-10-30T11:37:48.835Z,9.10
2022-10-30T11:40:23.149Z,9.27
2022-10-30T11:43:04.435Z,9.21
2022-10-30T11:45:39.510Z,9.11
2022-10-30T11:48:27.176Z,9.09
2022-10-30T11:51:04.778Z,8.99
2022-10-30T11:53:40.341Z,8.80
2022-10-30T11:56:23.877Z,8.71
2022-10-30T11:58:58.474Z,8.50
2022-10-30T12:01:39.472Z,8.50
2022-10-30T12:04:27.538Z,8.29
2022-10-30T12:07:11.087Z,8.33
2022-10-30T12:09:44.952Z,8.16
2022-10-30T12:12:33.152Z,8.14
2022-10-30T12:15:14.163Z,8.06
2022-10-30T12:18:03.931Z,8.06
2022-10-30T12:20:56.161Z,8.07
2022-10-30T12:23:29.921Z,8.04
2022-10-30T12:26:04.781Z,8.03
2022-10-30T12:28:37.526Z,8.03
2022-10-30T12:31:18.706Z,8.07
2022-10-30T12:34:13.242Z,8.19
2022-10-30T12:36:48.471Z,8.23
2022-10-30T12:39:33.226Z,8.36
2022-10-30T12:42:16.613Z,8.48
2022-10-30T12:44:51.546Z,8.50
2022-10-30T12:47:44.199Z,8.54
2022-10-30T12:50:19.145Z,8.56
2022-10-30T12:53:03.402Z,8.51
2022-10-30T12:55:43.677Z,8.42
2022-10-30T12:58:21.177Z,8.40
2022-10-30T13:01:05.029Z,8.30
2022-10-30T13:03:42.618Z,8.25
2022-10-30T13:06:29.676Z,8.13
2022-10-30T13:09:22.701Z,8.15
2022-10-30T13:12:06.592Z,7.79
2022-10-30T13:14:45.151Z,7.37
2022-10-30T13:17:17.478Z,7.12
2022-10-30T13:19:51.229Z,6.54
2022-10-30T13:22:54.518Z,6.17
2022-10-30T13:25:35.550Z,5.81
2022-10-30T13:28:19.254Z,5.47
2022-10-30T13:30:54.394Z,5.26
2022-10-30T13:33:37.911Z,5.13
2022-10-30T13:36:18.592Z,5.02
2022-10-30T13:39:02.594Z,4.94
2022-10-30T13:41:37.746Z,4.87
2022-10-30T13:44:21.833Z,4.87
2022-10-30T13:47:08.953Z,4.91
2022-10-30T13:49:49.815Z,4.92
2022-10-30T13:52:23.820Z,4.95
2022-10-30T13:55:04.706Z,4.95
2022-10-30T13:57:45.564Z,5.06
2022-10-30T14:00:23.366Z,5.08
2022-10-30T14:03:19.204Z,5.21
2022-10-30T14:05:54.390Z,5.16
2022-10-30T14:08:44.583Z,5.11
2022-10-30T14:11:16.728Z,5.10
2022-10-30T14:14:06.813Z,5.03
2022-10-30T14:16:47.945Z,5.05
2022-10-30T14:19:20.605Z,5.04
2022-10-30T14:21:57.233Z,5.09
2022-10-30T14:24:32.140Z,4.99
2022-10-30T14:27:10.470Z,4.98
2022-10-30T14:29:45.552Z,4.90
2022-10-30T14:32:20.714Z,4.85
2022-10-30T14:34:55.954Z,4.83
2022-10-30T14:37:31.327Z,4.62
2022-10-30T14:40:08.957Z,4.27
2022-10-30T14:42:47.339Z,3.87
2022-10-30T14:45:38.811Z,3.62
2022-10-30T14:48:29.690Z,3.48
2022-10-30T14:51:19.777Z,3.28
2022-10-30T14:54:18.269Z,3.15
2022-10-30T14:56:50.235Z,2.99
2022-10-30T14:59:25.661Z,2.93
2022-10-30T15:02:06.192Z,2.83
2022-10-30T15:04:47.137Z,2.70
2022-10-30T15:07:38.422Z,2.75
2022-10-30T15:10:19.037Z,2.62
2022-10-30T15:13:16.111Z,2.64
2022-10-30T15:16:03.268Z,2.67
2022-10-30T15:18:35.766Z,2.67
2022-10-30T15:21:08.858Z,2.71
2022-10-30T15:23:42.892Z,2.73
2022-10-30T15:26:23.721Z,2.76
2022-10-30T15:28:55.956Z,2.82
2022-10-30T15:31:29.622Z,2.85
2022-10-30T15:34:01.789Z,2.82
2022-10-30T15:36:39.228Z,2.79
2022-10-30T15:39:14.118Z,2.75
2022-10-30T15:41:52.003Z,2.76
2022-10-30T15:44:35.922Z,2.82
2022-10-30T15:47:21.116Z,2.91
2022-10-30T15:49:55.457Z,2.96
2022-10-30T15:52:29.807Z,2.92
2022-10-30T15:55:08.022Z,2.94
2022-10-30T15:58:09.178Z,2.81
2022-10-30T16:00:30.549Z,2.95
2022-10-30T16:03:05.394Z,2.70
2022-10-30T16:05:37.486Z,2.64
2022-10-30T16:08:18.030Z,2.68
2022-10-30T16:10:52.203Z,2.74
2022-10-30T16:13:24.975Z,2.87
2022-10-30T16:15:57.028Z,3.04
2022-10-30T16:18:31.390Z,3.05
2022-10-30T16:21:11.547Z,3.09
2022-10-30T16:23:45.706Z,3.06
2022-10-30T16:26:38.302Z,3.01
2022-10-30T16:29:20.687Z,2.98
2022-10-30T16:31:53.821Z,3.07
2022-10-30T16:34:35.617Z,3.01
2022-10-30T16:37:10.180Z,2.95
2022-10-30T16:39:44.137Z,2.92
2022-10-30T16:42:22.022Z,2.89
2022-10-30T16:44:56.880Z,2.87
2022-10-30T16:47:29.948Z,2.91
2022-10-30T16:50:01.973Z,2.90
2022-10-30T16:52:38.769Z,2.95
2022-10-30T16:55:22.236Z,2.99
2022-10-30T16:57:59.765Z,3.14
2022-10-30T17:00:36.172Z,3.18
2022-10-30T17:03:13.480Z,3.23
2022-10-30T17:05:47.783Z,3.18
2022-10-30T17:08:20.382Z,3.08
2022-10-30T17:11:00.711Z,3.16
2022-10-30T17:13:46.145Z,2.91
2022-10-30T17:16:24.662Z,2.90
2022-10-30T17:18:56.698Z,2.98
2022-10-30T17:21:43.289Z,3.06
2022-10-30T17:24:23.805Z,3.11
2022-10-30T17:26:58.031Z,3.27
2022-10-30T17:29:39.859Z,3.43
2022-10-30T17:32:22.401Z,3.48
2022-10-30T17:35:00.882Z,3.44
2022-10-30T17:37:33.004Z,3.27
2022-10-30T17:40:05.267Z,3.12
2022-10-30T17:42:37.237Z,3.09
2022-10-30T17:45:11.111Z,2.90
2022-10-30T17:47:42.976Z,2.91
2022-10-30T17:50:14.821Z,2.82
2022-10-30T17:52:46.620Z,2.82
2022-10-30T17:55:27.254Z,2.74
2022-10-30T17:57:59.176Z,2.72
2022-10-30T18:00:31.235Z,2.63
2022-10-30T18:03:04.587Z,2.55
2022-10-30T18:05:37.410Z,2.55
2022-10-30T18:08:09.351Z,2.47
2022-10-30T18:10:41.469Z,2.43
2022-10-30T18:13:15.234Z,2.45
2022-10-30T18:15:52.662Z,2.45
2022-10-30T18:18:24.499Z,2.37
2022-10-30T18:20:56.663Z,2.31
2022-10-30T18:23:50.873Z,2.30
2022-10-30T18:26:02.607Z,2.33
2022-10-30T18:28:34.529Z,2.32
2022-10-30T18:31:06.737Z,2.33
2022-10-30T18:33:38.671Z,2.35
2022-10-30T18:36:16.195Z,2.35
2022-10-30T18:38:48.383Z,2.36
2022-10-30T18:41:23.112Z,2.37
2022-10-30T18:43:54.971Z,2.38
2022-10-30T18:46:27.166Z,2.39
2022-10-30T18:48:59.522Z,2.33
2022-10-30T18:51:31.396Z,2.31
2022-10-30T18:54:03.497Z,2.29
2022-10-30T18:56:35.474Z,2.30
2022-10-30T18:59:07.513Z,2.37
2022-10-30T19:01:39.910Z,2.27
2022-10-30T19:04:12.548Z,2.23
2022-10-30T19:06:44.964Z,2.14
2022-10-30T19:09:16.818Z,2.22
2022-10-30T19:11:48.623Z,2.17
2022-10-30T19:14:21.799Z,2.09
2022-10-30T19:16:53.912Z,2.04
2022-10-30T19:19:25.921Z,2.00
2022-10-30T19:21:57.726Z,2.04
2022-10-30T19:24:29.754Z,2.23
2022-10-30T19:27:01.740Z,2.04
2022-10-30T19:29:33.750Z,2.25
2022-10-30T19:32:05.644Z,2.13
2022-10-30T19:34:37.552Z,2.13
2022-10-30T19:37:10.571Z,2.12
2022-10-30T19:39:42.383Z,2.06
2022-10-30T19:42:14.190Z,2.19
2022-10-30T19:44:46.324Z,2.14
2022-10-30T19:47:18.296Z,2.19
2022-10-30T19:49:50.230Z,2.18
2022-10-30T19:52:26.658Z,2.19
2022-10-30T19:54:55.745Z,2.13
2022-10-30T19:57:27.713Z,2.02
2022-10-30T20:00:01.637Z,1.95
2022-10-30T20:02:35.385Z,1.88
2022-10-30T20:05:07.598Z,1.93
2022-10-30T20:07:39.664Z,1.92
2022-10-30T20:10:17.018Z,1.90
2022-10-30T20:15:25.604Z,1.97
2022-10-30T20:17:58.925Z,1.94
2022-10-30T20:20:35.678Z,1.91
2022-10-30T20:23:07.685Z,1.99
2022-10-30T20:25:39.739Z,1.91
2022-10-30T20:28:26.450Z,1.91
2022-10-30T20:30:58.545Z,1.92
2022-10-30T20:33:30.707Z,2.04
2022-10-30T20:36:02.774Z,1.95
2022-10-30T20:38:35.853Z,2.04
2022-10-30T20:41:08.234Z,1.94
2022-10-30T20:43:40.710Z,1.91
2022-10-30T20:46:12.575Z,1.89
2022-10-30T20:48:44.552Z,1.91
2022-10-30T20:51:16.559Z,1.91
2022-10-30T20:53:48.660Z,1.94
2022-10-30T20:56:20.748Z,1.96
2022-10-30T20:58:53.539Z,1.92
2022-10-30T21:01:25.712Z,1.80
2022-10-30T21:04:01.536Z,1.83
2022-10-30T21:06:31.737Z,1.80
2022-10-30T21:09:03.596Z,1.84
2022-10-30T21:11:35.523Z,2.04
2022-10-30T21:14:07.394Z,1.99
2022-10-30T21:16:39.271Z,1.92
2022-10-30T21:19:11.155Z,1.83
2022-10-30T21:21:43.150Z,1.68
2022-10-30T21:24:15.116Z,1.58
2022-10-30T21:26:47.158Z,1.59
2022-10-30T21:29:19.213Z,1.56
2022-10-30T21:31:52.598Z,1.67
2022-10-30T21:34:24.578Z,1.54
2022-10-30T21:36:56.745Z,1.58
2022-10-30T21:39:28.649Z,1.69
2022-10-30T21:42:00.466Z,1.67
2022-10-30T21:44:32.658Z,1.59
2022-10-30T21:47:04.549Z,1.60
2022-10-30T21:49:36.450Z,1.75
2022-10-30T21:52:08.332Z,1.77
2022-10-30T21:54:41.793Z,1.90
2022-10-30T21:57:14.102Z,1.89
2022-10-30T21:59:46.282Z,1.91
2022-10-30T22:02:18.467Z,1.98
2022-10-30T22:04:50.522Z,1.98
2022-10-30T22:07:22.577Z,1.92
2022-10-30T22:09:54.745Z,1.90
2022-10-30T22:12:26.653Z,1.90
2022-10-30T22:14:58.529Z,1.85
2022-10-30T22:17:33.840Z,1.87
2022-10-30T22:20:04.444Z,1.77
2022-10-30T22:22:36.410Z,1.80
2022-10-30T22:25:11.190Z,1.71
2022-10-30T22:27:43.081Z,1.70
2022-10-30T22:30:15.730Z,1.79
2022-10-30T22:32:47.821Z,1.80
2022-10-30T22:35:19.859Z,1.80
2022-10-30T22:37:51.947Z,1.90
2022-10-30T22:40:23.751Z,1.92
2022-10-30T22:42:55.740Z,1.96
2022-10-30T22:45:27.708Z,1.96
2022-10-30T22:47:59.917Z,1.96
2022-10-30T22:50:32.105Z,2.14
2022-10-30T22:53:04.194Z,1.96
2022-10-30T22:55:36.193Z,2.05
2022-10-30T22:58:08.461Z,2.05
2022-10-30T23:00:40.532Z,2.08
2022-10-30T23:03:12.493Z,2.06
2022-10-30T23:05:44.671Z,2.09
2022-10-30T23:08:16.570Z,2.09
2022-10-30T23:10:54.464Z,2.23
2022-10-30T23:13:27.137Z,2.14
2022-10-30T23:16:03.625Z,2.13
2022-10-30T23:18:36.159Z,2.03
2022-10-30T23:21:11.302Z,2.22
2022-10-30T23:23:44.048Z,2.09
2022-10-30T23:26:22.085Z,2.06
2022-10-30T23:28:55.740Z,2.07
2022-10-30T23:31:30.274Z,2.14
2022-10-30T23:34:05.105Z,2.14
2022-10-30T23:36:37.432Z,2.20
2022-10-30T23:39:12.390Z,2.13
2022-10-30T23:41:45.050Z,2.14
2022-10-30T23:44:17.786Z,2.23
2022-10-30T23:46:49.703Z,2.26
2022-10-30T23:49:21.940Z,2.15
2022-10-30T23:51:54.007Z,2.24
2022-10-30T23:54:26.125Z,2.17
2022-10-30T23:56:58.026Z,2.15
2022-10-30T23:59:29.958Z,2.16
